BBC Polonia — V2EZ6 — position and weather

sailwx.info

Track history (hours):
 
Tides and Currents Weather Stations Pressure Air Temp Water Temp Dewpoint Dewpoint Depression Visibility Wind Speed Wind Dir Waves Ship Positions

BBC Polonia

Last reported at 2014-Jun-13 06:34 UTC. Time now 2014-Jul-22 14:57 UTC.
Position N 29°30' W 094°52'.
Warning: this ship's position is 39 days out of date.

Length 123 m; draft 7.3 m.

Type: Cargo ship. MMSI: 305614000.

Date/timePositionNaut miles runAvg speedWind from/ knotsBaromVisibWave heightAir tempDewpointWater temp
2014-Jun-13 06:34N 29°30' W 094°52'1212.2
2014-Jun-13 05:33N 29°41' W 094°59'7 6.9
2014-Jun-13 04:30N 29°45' W 095°06'0 0.4
2014-Jun-13 03:31N 29°45' W 095°06'0 0.0
2014-Jun-13 02:25N 29°45' W 095°06'0 0.0
2014-Jun-13 01:31N 29°45' W 095°06'0 0.0
2014-Jun-13 00:31N 29°45' W 095°06'0 0.0
2014-Jun-12 23:31N 29°45' W 095°06'0 0.0
2014-Jun-12 22:31N 29°45' W 095°06'0 0.0
2014-Jun-12 21:28N 29°45' W 095°06'0 0.0
2014-Jun-12 20:31N 29°45' W 095°06'0 0.0
2014-Jun-12 19:28N 29°45' W 095°06'0 0.0
2014-Jun-12 18:31N 29°45' W 095°06'0 0.0
2014-Jun-12 17:31N 29°45' W 095°06'0 0.0
2014-Jun-12 16:31N 29°45' W 095°06'0 0.0
2014-Jun-12 15:31N 29°45' W 095°06'0 0.0
2014-Jun-12 14:31N 29°45' W 095°06'0 0.0
2014-Jun-12 13:28N 29°45' W 095°06'0 0.0
2014-Jun-12 12:31N 29°45' W 095°06'0 0.0
2014-Jun-12 11:31N 29°45' W 095°06'0 0.0
2014-Jun-12 10:31N 29°45' W 095°06'0 0.0
2014-Jun-12 09:31N 29°45' W 095°06'0 0.0
2014-Jun-12 08:31N 29°45' W 095°06'0 0.0
2014-Jun-12 07:31N 29°45' W 095°06'0 0.0
2014-Jun-12 06:31N 29°45' W 095°06'0 0.0
2014-Jun-12 05:31N 29°45' W 095°06'0 0.0
2014-Jun-12 04:31N 29°45' W 095°06'0 0.0
2014-Jun-12 03:31N 29°45' W 095°06'0 0.0
2014-Jun-12 02:31N 29°45' W 095°06'0 0.0
2014-Jun-12 01:31N 29°45' W 095°06'0 0.0
2014-Jun-12 00:31N 29°45' W 095°06'0 0.0
2014-Jun-11 23:31N 29°45' W 095°06'0 0.0
2014-Jun-11 22:31N 29°45' W 095°06'0 0.0
2014-Jun-11 21:31N 29°45' W 095°06'1 1.4
2014-Jun-11 20:34N 29°46' W 095°05'9 9.5
2014-Jun-11 19:34N 29°39' W 094°58'1312.5
2014-Jun-11 18:32N 29°27' W 094°51'60011.9
2014-Jun-09 16:15N 19°31' W 095°55'912.7
2014-Jun-09 15:33N 19°22' W 095°57'1211.7
2014-Jun-09 14:34N 19°12' W 096°03'5 5.2
2014-Jun-09 13:32N 19°12' W 096°08'0 0.0
2014-Jun-09 12:32N 19°12' W 096°08'0 0.0
2014-Jun-09 11:32N 19°12' W 096°08'0 0.0
2014-Jun-09 10:32N 19°12' W 096°08'0 0.0
2014-Jun-09 09:29N 19°12' W 096°08'0 0.0
2014-Jun-09 08:29N 19°12' W 096°08'0 0.0
2014-Jun-09 07:32N 19°12' W 096°08'0 0.0
2014-Jun-09 06:32N 19°12' W 096°08'0 0.0
2014-Jun-09 05:32N 19°12' W 096°08'0 0.0
2014-Jun-09 04:32N 19°12' W 096°08'0 0.0
2014-Jun-09 03:32N 19°12' W 096°08'0 0.0
2014-Jun-09 02:32N 19°12' W 096°08'0 0.0
2014-Jun-09 01:32N 19°12' W 096°08'0 0.0
2014-Jun-09 00:32N 19°12' W 096°08'0 0.0
2014-Jun-08 23:32N 19°12' W 096°08'0 0.0
2014-Jun-08 22:32N 19°12' W 096°08'0 0.0
2014-Jun-08 21:32N 19°12' W 096°08'0 0.0
2014-Jun-08 20:32N 19°12' W 096°08'0 0.0
2014-Jun-08 19:26N 19°12' W 096°08'0 0.0
2014-Jun-08 18:26N 19°12' W 096°08'0 0.0
2014-Jun-08 17:23N 19°12' W 096°08'0 0.0
2014-Jun-08 16:32N 19°12' W 096°08'0 0.0
2014-Jun-08 15:32N 19°12' W 096°08'0 0.0
2014-Jun-08 14:32N 19°12' W 096°08'0 0.0
2014-Jun-08 13:32N 19°12' W 096°08'0 0.0
2014-Jun-08 12:32N 19°12' W 096°08'0 0.0
2014-Jun-08 11:32N 19°12' W 096°08'0 0.0
2014-Jun-08 10:32N 19°12' W 096°08'0 0.0
2014-Jun-08 09:32N 19°12' W 096°08'0 0.0
2014-Jun-08 08:29N 19°12' W 096°08'0 0.0
2014-Jun-08 07:32N 19°12' W 096°08'0 0.0
2014-Jun-08 06:32N 19°12' W 096°08'0 0.0
2014-Jun-08 05:29N 19°12' W 096°08'0 0.0
2014-Jun-08 04:32N 19°12' W 096°08'0 0.0
2014-Jun-08 03:32N 19°12' W 096°08'0 0.0
2014-Jun-08 02:32N 19°12' W 096°08'0 0.0
2014-Jun-08 01:32N 19°12' W 096°08'0 0.0
2014-Jun-08 00:32N 19°12' W 096°08'0 0.0
2014-Jun-07 23:29N 19°12' W 096°08'0 0.0
2014-Jun-07 22:32N 19°12' W 096°08'0 0.0
2014-Jun-07 21:32N 19°12' W 096°08'0 0.0
2014-Jun-07 20:29N 19°12' W 096°08'0 0.0
2014-Jun-07 19:32N 19°12' W 096°08'0 0.0
2014-Jun-07 18:32N 19°12' W 096°08'0 0.0
2014-Jun-07 17:29N 19°12' W 096°08'0 0.0
2014-Jun-07 16:32N 19°12' W 096°08'0 0.0
2014-Jun-07 15:32N 19°12' W 096°08'0 0.0
2014-Jun-07 14:29N 19°12' W 096°08'0 0.0
2014-Jun-07 13:32N 19°12' W 096°08'0 0.0
2014-Jun-07 12:32N 19°12' W 096°08'0 0.0
2014-Jun-07 11:32N 19°12' W 096°08'0 0.0
2014-Jun-07 10:32N 19°12' W 096°08'0 0.0
2014-Jun-07 09:32N 19°12' W 096°08'0 0.0
2014-Jun-07 08:32N 19°12' W 096°08'0 0.0
2014-Jun-07 07:32N 19°12' W 096°08'0 0.0
2014-Jun-07 06:32N 19°12' W 096°08'0 0.0
2014-Jun-07 05:32N 19°12' W 096°08'0 0.0
2014-Jun-07 04:29N 19°12' W 096°08'0 0.0
2014-Jun-07 03:32N 19°12' W 096°08'0 0.0
2014-Jun-07 02:32N 19°12' W 096°08'0 0.0
2014-Jun-07 01:32N 19°12' W 096°08'0 0.0
2014-Jun-07 00:32N 19°12' W 096°08'0 0.0
2014-Jun-06 23:23N 19°12' W 096°08'0 0.0
2014-Jun-06 22:26N 19°12' W 096°08'0 0.0
2014-Jun-06 21:32N 19°12' W 096°08'0 0.0
2014-Jun-06 20:32N 19°12' W 096°08'0 0.0
2014-Jun-06 19:29N 19°12' W 096°08'0 0.0
2014-Jun-06 18:29N 19°12' W 096°08'0 0.0
2014-Jun-06 17:32N 19°12' W 096°08'0 0.2
2014-Jun-06 16:32N 19°12' W 096°08'0 0.0
2014-Jun-06 15:29N 19°12' W 096°08'0 0.0
2014-Jun-06 14:32N 19°12' W 096°08'0 0.0
2014-Jun-06 13:32N 19°12' W 096°08'0 0.0
2014-Jun-06 12:32N 19°12' W 096°08'0 0.0
2014-Jun-06 11:32N 19°12' W 096°08'0 0.0
2014-Jun-06 10:32N 19°12' W 096°08'0 0.0
2014-Jun-06 09:32N 19°12' W 096°08'0 0.0
2014-Jun-06 08:32N 19°12' W 096°08'0 0.0
2014-Jun-06 07:29N 19°12' W 096°08'0 0.0
2014-Jun-06 06:32N 19°12' W 096°08'0 0.0
2014-Jun-06 05:29N 19°12' W 096°08'0 0.0
2014-Jun-06 04:29N 19°12' W 096°08'0 0.0
2014-Jun-06 03:32N 19°12' W 096°08'0 0.0
2014-Jun-06 02:29N 19°12' W 096°08'0 0.0
2014-Jun-06 01:32N 19°12' W 096°08'0 0.0
2014-Jun-06 00:32N 19°12' W 096°08'0 0.0
2014-Jun-05 23:32N 19°12' W 096°08'0 0.0
2014-Jun-05 22:32N 19°12' W 096°08'0 0.0
2014-Jun-05 21:32N 19°12' W 096°08'0 0.0
2014-Jun-05 20:32N 19°12' W 096°08'0 0.0
2014-Jun-05 19:32N 19°12' W 096°08'0 0.0
2014-Jun-05 18:32N 19°12' W 096°08'0 0.0
2014-Jun-05 17:32N 19°12' W 096°08'0 0.0
2014-Jun-05 16:32N 19°12' W 096°08'0 0.0
2014-Jun-05 15:29N 19°12' W 096°08'0 0.0
2014-Jun-05 14:29N 19°12' W 096°08'0 0.0
2014-Jun-05 13:32N 19°12' W 096°08'0 0.0
2014-Jun-05 12:29N 19°12' W 096°08'0 0.0
2014-Jun-05 11:32N 19°12' W 096°08'0 0.0
2014-Jun-05 10:29N 19°12' W 096°08'0 0.0
2014-Jun-05 09:32N 19°12' W 096°08'0 0.0
2014-Jun-05 08:32N 19°12' W 096°08'0 0.0
2014-Jun-05 07:32N 19°12' W 096°08'0 0.0
2014-Jun-05 06:32N 19°12' W 096°08'0 0.0
2014-Jun-05 05:32N 19°12' W 096°08'0 0.0
2014-Jun-05 04:32N 19°12' W 096°08'0 0.0
2014-Jun-05 03:32N 19°12' W 096°08'0 0.0
2014-Jun-05 02:32N 19°12' W 096°08'0 0.0
2014-Jun-05 01:32N 19°12' W 096°08'0 0.0
2014-Jun-05 00:32N 19°12' W 096°08'0 0.0
2014-Jun-04 23:32N 19°12' W 096°08'0 0.0
2014-Jun-04 22:32N 19°12' W 096°08'0 0.0
2014-Jun-04 21:32N 19°12' W 096°08'0 0.0
2014-Jun-04 20:29N 19°12' W 096°08'0 0.0
2014-Jun-04 19:32N 19°12' W 096°08'0 0.0
2014-Jun-04 18:32N 19°12' W 096°08'0 0.0
2014-Jun-04 17:32N 19°12' W 096°08'0 0.0
2014-Jun-04 16:32N 19°12' W 096°08'0 0.0
2014-Jun-04 15:32N 19°12' W 096°08'0 0.0
2014-Jun-04 14:32N 19°12' W 096°08'0 0.0
2014-Jun-04 13:32N 19°12' W 096°08'0 0.0
2014-Jun-04 12:32N 19°12' W 096°08'0 0.0
2014-Jun-04 11:29N 19°12' W 096°08'0 0.0
2014-Jun-04 10:32N 19°12' W 096°08'0 0.0
2014-Jun-04 09:32N 19°12' W 096°08'0 0.0
2014-Jun-04 08:32N 19°12' W 096°08'0 0.0
2014-Jun-04 07:29N 19°12' W 096°08'0 0.0
2014-Jun-04 06:32N 19°12' W 096°08'0 0.0
2014-Jun-04 05:29N 19°12' W 096°08'0 0.0
2014-Jun-04 04:32N 19°12' W 096°08'0 0.0
2014-Jun-04 03:32N 19°12' W 096°08'0 0.0
2014-Jun-04 02:32N 19°12' W 096°08'0 0.0
2014-Jun-04 01:32N 19°12' W 096°08'0 0.0
2014-Jun-04 00:32N 19°12' W 096°08'0 0.0
2014-Jun-03 23:29N 19°12' W 096°08'0 0.0
2014-Jun-03 22:32N 19°12' W 096°08'0 0.0
2014-Jun-03 21:32N 19°12' W 096°08'0 0.0
2014-Jun-03 20:32N 19°12' W 096°08'0 0.0
2014-Jun-03 19:26N 19°12' W 096°08'0 0.0
2014-Jun-03 18:23N 19°12' W 096°08'0 0.0
2014-Jun-03 17:20N 19°12' W 096°08'0 0.0
2014-Jun-03 16:32N 19°12' W 096°08'0 0.0
2014-Jun-03 15:26N 19°12' W 096°08'0 0.0
2014-Jun-03 14:32N 19°12' W 096°08'0 0.0
2014-Jun-03 13:29N 19°12' W 096°08'0 0.0
2014-Jun-03 12:29N 19°12' W 096°08'0 0.0
2014-Jun-03 11:32N 19°12' W 096°08'0 0.0
2014-Jun-03 10:32N 19°12' W 096°08'0 0.0
2014-Jun-03 09:32N 19°12' W 096°08'0 0.0
2014-Jun-03 08:32N 19°12' W 096°08'0 0.0
2014-Jun-03 07:26N 19°12' W 096°08'  
Track history (hours):
 
Tides and Currents Weather Stations Pressure Air Temp Water Temp Dewpoint Dewpoint Depression Visibility Wind Speed Wind Dir Waves Ship Positions

BBC Polonia

Last reported at 2014-Jun-13 06:34 UTC. Time now 2014-Jul-22 14:57 UTC.
Position N 29°30' W 094°52'.
Warning: this ship's position is 39 days out of date.

Length 123 m; draft 7.3 m.

Type: Cargo ship. MMSI: 305614000.

Date/timePositionNaut miles runAvg speedWind from/ knotsBaromVisibWave heightAir tempDewpointWater temp
2014-Jun-13 06:34N 29°30' W 094°52'1212.2
2014-Jun-13 05:33N 29°41' W 094°59'7 6.9
2014-Jun-13 04:30N 29°45' W 095°06'0 0.4
2014-Jun-13 03:31N 29°45' W 095°06'0 0.0
2014-Jun-13 02:25N 29°45' W 095°06'0 0.0
2014-Jun-13 01:31N 29°45' W 095°06'0 0.0
2014-Jun-13 00:31N 29°45' W 095°06'0 0.0
2014-Jun-12 23:31N 29°45' W 095°06'0 0.0
2014-Jun-12 22:31N 29°45' W 095°06'0 0.0
2014-Jun-12 21:28N 29°45' W 095°06'0 0.0
2014-Jun-12 20:31N 29°45' W 095°06'0 0.0
2014-Jun-12 19:28N 29°45' W 095°06'0 0.0
2014-Jun-12 18:31N 29°45' W 095°06'0 0.0
2014-Jun-12 17:31N 29°45' W 095°06'0 0.0
2014-Jun-12 16:31N 29°45' W 095°06'0 0.0
2014-Jun-12 15:31N 29°45' W 095°06'0 0.0
2014-Jun-12 14:31N 29°45' W 095°06'0 0.0
2014-Jun-12 13:28N 29°45' W 095°06'0 0.0
2014-Jun-12 12:31N 29°45' W 095°06'0 0.0
2014-Jun-12 11:31N 29°45' W 095°06'0 0.0
2014-Jun-12 10:31N 29°45' W 095°06'0 0.0
2014-Jun-12 09:31N 29°45' W 095°06'0 0.0
2014-Jun-12 08:31N 29°45' W 095°06'0 0.0
2014-Jun-12 07:31N 29°45' W 095°06'0 0.0
2014-Jun-12 06:31N 29°45' W 095°06'0 0.0
2014-Jun-12 05:31N 29°45' W 095°06'0 0.0
2014-Jun-12 04:31N 29°45' W 095°06'0 0.0
2014-Jun-12 03:31N 29°45' W 095°06'0 0.0
2014-Jun-12 02:31N 29°45' W 095°06'0 0.0
2014-Jun-12 01:31N 29°45' W 095°06'0 0.0
2014-Jun-12 00:31N 29°45' W 095°06'0 0.0
2014-Jun-11 23:31N 29°45' W 095°06'0 0.0
2014-Jun-11 22:31N 29°45' W 095°06'0 0.0
2014-Jun-11 21:31N 29°45' W 095°06'1 1.4
2014-Jun-11 20:34N 29°46' W 095°05'9 9.5
2014-Jun-11 19:34N 29°39' W 094°58'1312.5
2014-Jun-11 18:32N 29°27' W 094°51'60011.9
2014-Jun-09 16:15N 19°31' W 095°55'912.7
2014-Jun-09 15:33N 19°22' W 095°57'1211.7
2014-Jun-09 14:34N 19°12' W 096°03'5 5.2
2014-Jun-09 13:32N 19°12' W 096°08'0 0.0
2014-Jun-09 12:32N 19°12' W 096°08'0 0.0
2014-Jun-09 11:32N 19°12' W 096°08'0 0.0
2014-Jun-09 10:32N 19°12' W 096°08'0 0.0
2014-Jun-09 09:29N 19°12' W 096°08'0 0.0
2014-Jun-09 08:29N 19°12' W 096°08'0 0.0
2014-Jun-09 07:32N 19°12' W 096°08'0 0.0
2014-Jun-09 06:32N 19°12' W 096°08'0 0.0
2014-Jun-09 05:32N 19°12' W 096°08'0 0.0
2014-Jun-09 04:32N 19°12' W 096°08'0 0.0
2014-Jun-09 03:32N 19°12' W 096°08'0 0.0
2014-Jun-09 02:32N 19°12' W 096°08'0 0.0
2014-Jun-09 01:32N 19°12' W 096°08'0 0.0
2014-Jun-09 00:32N 19°12' W 096°08'0 0.0
2014-Jun-08 23:32N 19°12' W 096°08'0 0.0
2014-Jun-08 22:32N 19°12' W 096°08'0 0.0
2014-Jun-08 21:32N 19°12' W 096°08'0 0.0
2014-Jun-08 20:32N 19°12' W 096°08'0 0.0
2014-Jun-08 19:26N 19°12' W 096°08'0 0.0
2014-Jun-08 18:26N 19°12' W 096°08'0 0.0
2014-Jun-08 17:23N 19°12' W 096°08'0 0.0
2014-Jun-08 16:32N 19°12' W 096°08'0 0.0
2014-Jun-08 15:32N 19°12' W 096°08'0 0.0
2014-Jun-08 14:32N 19°12' W 096°08'0 0.0
2014-Jun-08 13:32N 19°12' W 096°08'0 0.0
2014-Jun-08 12:32N 19°12' W 096°08'0 0.0
2014-Jun-08 11:32N 19°12' W 096°08'0 0.0
2014-Jun-08 10:32N 19°12' W 096°08'0 0.0
2014-Jun-08 09:32N 19°12' W 096°08'0 0.0
2014-Jun-08 08:29N 19°12' W 096°08'0 0.0
2014-Jun-08 07:32N 19°12' W 096°08'0 0.0
2014-Jun-08 06:32N 19°12' W 096°08'0 0.0
2014-Jun-08 05:29N 19°12' W 096°08'0 0.0
2014-Jun-08 04:32N 19°12' W 096°08'0 0.0
2014-Jun-08 03:32N 19°12' W 096°08'0 0.0
2014-Jun-08 02:32N 19°12' W 096°08'0 0.0
2014-Jun-08 01:32N 19°12' W 096°08'0 0.0
2014-Jun-08 00:32N 19°12' W 096°08'0 0.0
2014-Jun-07 23:29N 19°12' W 096°08'0 0.0
2014-Jun-07 22:32N 19°12' W 096°08'0 0.0
2014-Jun-07 21:32N 19°12' W 096°08'0 0.0
2014-Jun-07 20:29N 19°12' W 096°08'0 0.0
2014-Jun-07 19:32N 19°12' W 096°08'0 0.0
2014-Jun-07 18:32N 19°12' W 096°08'0 0.0
2014-Jun-07 17:29N 19°12' W 096°08'0 0.0
2014-Jun-07 16:32N 19°12' W 096°08'0 0.0
2014-Jun-07 15:32N 19°12' W 096°08'0 0.0
2014-Jun-07 14:29N 19°12' W 096°08'0 0.0
2014-Jun-07 13:32N 19°12' W 096°08'0 0.0
2014-Jun-07 12:32N 19°12' W 096°08'0 0.0
2014-Jun-07 11:32N 19°12' W 096°08'0 0.0
2014-Jun-07 10:32N 19°12' W 096°08'0 0.0
2014-Jun-07 09:32N 19°12' W 096°08'0 0.0
2014-Jun-07 08:32N 19°12' W 096°08'0 0.0
2014-Jun-07 07:32N 19°12' W 096°08'0 0.0
2014-Jun-07 06:32N 19°12' W 096°08'0 0.0
2014-Jun-07 05:32N 19°12' W 096°08'0 0.0
2014-Jun-07 04:29N 19°12' W 096°08'0 0.0
2014-Jun-07 03:32N 19°12' W 096°08'0 0.0
2014-Jun-07 02:32N 19°12' W 096°08'0 0.0
2014-Jun-07 01:32N 19°12' W 096°08'0 0.0
2014-Jun-07 00:32N 19°12' W 096°08'0 0.0
2014-Jun-06 23:23N 19°12' W 096°08'0 0.0
2014-Jun-06 22:26N 19°12' W 096°08'0 0.0
2014-Jun-06 21:32N 19°12' W 096°08'0 0.0
2014-Jun-06 20:32N 19°12' W 096°08'0 0.0
2014-Jun-06 19:29N 19°12' W 096°08'0 0.0
2014-Jun-06 18:29N 19°12' W 096°08'0 0.0
2014-Jun-06 17:32N 19°12' W 096°08'0 0.2
2014-Jun-06 16:32N 19°12' W 096°08'0 0.0
2014-Jun-06 15:29N 19°12' W 096°08'0 0.0
2014-Jun-06 14:32N 19°12' W 096°08'0 0.0
2014-Jun-06 13:32N 19°12' W 096°08'0 0.0
2014-Jun-06 12:32N 19°12' W 096°08'0 0.0
2014-Jun-06 11:32N 19°12' W 096°08'0 0.0
2014-Jun-06 10:32N 19°12' W 096°08'0 0.0
2014-Jun-06 09:32N 19°12' W 096°08'0 0.0
2014-Jun-06 08:32N 19°12' W 096°08'0 0.0
2014-Jun-06 07:29N 19°12' W 096°08'0 0.0
2014-Jun-06 06:32N 19°12' W 096°08'0 0.0
2014-Jun-06 05:29N 19°12' W 096°08'0 0.0
2014-Jun-06 04:29N 19°12' W 096°08'0 0.0
2014-Jun-06 03:32N 19°12' W 096°08'0 0.0
2014-Jun-06 02:29N 19°12' W 096°08'0 0.0
2014-Jun-06 01:32N 19°12' W 096°08'0 0.0
2014-Jun-06 00:32N 19°12' W 096°08'0 0.0
2014-Jun-05 23:32N 19°12' W 096°08'0 0.0
2014-Jun-05 22:32N 19°12' W 096°08'0 0.0
2014-Jun-05 21:32N 19°12' W 096°08'0 0.0
2014-Jun-05 20:32N 19°12' W 096°08'0 0.0
2014-Jun-05 19:32N 19°12' W 096°08'0 0.0
2014-Jun-05 18:32N 19°12' W 096°08'0 0.0
2014-Jun-05 17:32N 19°12' W 096°08'0 0.0
2014-Jun-05 16:32N 19°12' W 096°08'0 0.0
2014-Jun-05 15:29N 19°12' W 096°08'0 0.0
2014-Jun-05 14:29N 19°12' W 096°08'0 0.0
2014-Jun-05 13:32N 19°12' W 096°08'0 0.0
2014-Jun-05 12:29N 19°12' W 096°08'0 0.0
2014-Jun-05 11:32N 19°12' W 096°08'0 0.0
2014-Jun-05 10:29N 19°12' W 096°08'0 0.0
2014-Jun-05 09:32N 19°12' W 096°08'0 0.0
2014-Jun-05 08:32N 19°12' W 096°08'0 0.0
2014-Jun-05 07:32N 19°12' W 096°08'0 0.0
2014-Jun-05 06:32N 19°12' W 096°08'0 0.0
2014-Jun-05 05:32N 19°12' W 096°08'0 0.0
2014-Jun-05 04:32N 19°12' W 096°08'0 0.0
2014-Jun-05 03:32N 19°12' W 096°08'0 0.0
2014-Jun-05 02:32N 19°12' W 096°08'0 0.0
2014-Jun-05 01:32N 19°12' W 096°08'0 0.0
2014-Jun-05 00:32N 19°12' W 096°08'0 0.0
2014-Jun-04 23:32N 19°12' W 096°08'0 0.0
2014-Jun-04 22:32N 19°12' W 096°08'0 0.0
2014-Jun-04 21:32N 19°12' W 096°08'0 0.0
2014-Jun-04 20:29N 19°12' W 096°08'0 0.0
2014-Jun-04 19:32N 19°12' W 096°08'0 0.0
2014-Jun-04 18:32N 19°12' W 096°08'0 0.0
2014-Jun-04 17:32N 19°12' W 096°08'0 0.0
2014-Jun-04 16:32N 19°12' W 096°08'0 0.0
2014-Jun-04 15:32N 19°12' W 096°08'0 0.0
2014-Jun-04 14:32N 19°12' W 096°08'0 0.0
2014-Jun-04 13:32N 19°12' W 096°08'0 0.0
2014-Jun-04 12:32N 19°12' W 096°08'0 0.0
2014-Jun-04 11:29N 19°12' W 096°08'0 0.0
2014-Jun-04 10:32N 19°12' W 096°08'0 0.0
2014-Jun-04 09:32N 19°12' W 096°08'0 0.0
2014-Jun-04 08:32N 19°12' W 096°08'0 0.0
2014-Jun-04 07:29N 19°12' W 096°08'0 0.0
2014-Jun-04 06:32N 19°12' W 096°08'0 0.0
2014-Jun-04 05:29N 19°12' W 096°08'0 0.0
2014-Jun-04 04:32N 19°12' W 096°08'0 0.0
2014-Jun-04 03:32N 19°12' W 096°08'0 0.0
2014-Jun-04 02:32N 19°12' W 096°08'0 0.0
2014-Jun-04 01:32N 19°12' W 096°08'0 0.0
2014-Jun-04 00:32N 19°12' W 096°08'0 0.0
2014-Jun-03 23:29N 19°12' W 096°08'0 0.0
2014-Jun-03 22:32N 19°12' W 096°08'0 0.0
2014-Jun-03 21:32N 19°12' W 096°08'0 0.0
2014-Jun-03 20:32N 19°12' W 096°08'0 0.0
2014-Jun-03 19:26N 19°12' W 096°08'0 0.0
2014-Jun-03 18:23N 19°12' W 096°08'0 0.0
2014-Jun-03 17:20N 19°12' W 096°08'0 0.0
2014-Jun-03 16:32N 19°12' W 096°08'0 0.0
2014-Jun-03 15:26N 19°12' W 096°08'0 0.0
2014-Jun-03 14:32N 19°12' W 096°08'0 0.0
2014-Jun-03 13:29N 19°12' W 096°08'0 0.0
2014-Jun-03 12:29N 19°12' W 096°08'0 0.0
2014-Jun-03 11:32N 19°12' W 096°08'0 0.0
2014-Jun-03 10:32N 19°12' W 096°08'0 0.0
2014-Jun-03 09:32N 19°12' W 096°08'0 0.0
2014-Jun-03 08:32N 19°12' W 096°08'0 0.0
2014-Jun-03 07:26N 19°12' W 096°08'  

Dump ship's entire track history